createdAt,value
2023-02-11T00:02:39.432Z,16.10
2023-02-11T00:08:16.884Z,16.60
2023-02-11T00:10:46.622Z,16.60
2023-02-11T00:13:14.836Z,15.47
2023-02-11T00:15:43.184Z,17.17
2023-02-11T00:18:11.368Z,19.33
2023-02-11T00:20:40.366Z,17.63
2023-02-11T00:23:08.748Z,17.70
2023-02-11T00:25:42.047Z,17.60
2023-02-11T00:28:11.314Z,16.47
2023-02-11T00:30:42.062Z,16.50
2023-02-11T00:33:10.373Z,17.33
2023-02-11T00:35:41.384Z,17.60
2023-02-11T00:38:10.075Z,16.10
2023-02-11T00:40:41.973Z,17.60
2023-02-11T00:43:10.413Z,16.60
2023-02-11T00:45:38.896Z,17.43
2023-02-11T00:48:07.328Z,17.07
2023-02-11T00:50:36.152Z,17.57
2023-02-11T00:53:06.050Z,18.47
2023-02-11T00:55:35.572Z,19.00
2023-02-11T00:58:05.639Z,18.77
2023-02-11T01:00:34.273Z,18.07
2023-02-11T01:03:03.009Z,17.70
2023-02-11T01:05:31.604Z,17.40
2023-02-11T01:08:00.452Z,18.77
2023-02-11T01:10:32.382Z,16.90
2023-02-11T01:13:01.780Z,18.17
2023-02-11T01:15:32.265Z,16.63
2023-02-11T01:18:00.773Z,17.50
2023-02-11T01:20:30.524Z,18.30
2023-02-11T01:23:00.172Z,16.53
2023-02-11T01:25:28.739Z,17.63
2023-02-11T01:27:58.069Z,15.40
2023-02-11T01:30:26.633Z,17.37
2023-02-11T01:32:56.802Z,16.10
2023-02-11T01:35:25.533Z,18.20
2023-02-11T01:37:54.340Z,16.70
2023-02-11T01:40:23.189Z,16.17
2023-02-11T01:42:52.185Z,18.80
2023-02-11T01:46:03.383Z,17.40
2023-02-11T01:48:37.344Z,16.67
2023-02-11T01:51:09.902Z,16.40
2023-02-11T01:53:56.952Z,16.10
2023-02-11T01:56:45.492Z,16.97
2023-02-11T01:59:21.063Z,14.93
2023-02-11T02:01:55.471Z,18.77
2023-02-11T02:04:31.390Z,16.33
2023-02-11T02:07:04.134Z,16.53
2023-02-11T02:09:39.516Z,16.57
2023-02-11T02:12:08.505Z,16.97
2023-02-11T02:14:41.404Z,16.83
2023-02-11T02:17:16.598Z,17.07
2023-02-11T02:20:20.772Z,16.00
2023-02-11T02:23:22.870Z,16.20
2023-02-11T02:26:28.896Z,16.50
2023-02-11T02:29:29.734Z,16.00
2023-02-11T02:32:27.803Z,10.27
2023-02-11T02:35:03.181Z,13.20
2023-02-11T02:37:38.024Z,10.50
2023-02-11T02:40:15.831Z,12.80
2023-02-11T02:42:45.968Z,14.80
2023-02-11T02:45:15.584Z,15.80
2023-02-11T02:47:45.543Z,15.40
2023-02-11T02:50:18.907Z,14.33
2023-02-11T02:52:55.876Z,16.20
2023-02-11T02:55:49.553Z,15.17
2023-02-11T02:58:47.351Z,14.77
2023-02-11T03:01:30.519Z,15.73
2023-02-11T03:04:08.125Z,16.50
2023-02-11T03:06:45.130Z,17.20
2023-02-11T03:09:22.533Z,16.30
2023-02-11T03:11:51.987Z,16.83
2023-02-11T03:14:22.525Z,16.10
2023-02-11T03:16:54.121Z,16.97
2023-02-11T03:19:28.117Z,16.10
2023-02-11T03:21:58.354Z,15.73
2023-02-11T03:24:30.964Z,15.77
2023-02-11T03:27:04.547Z,16.20
2023-02-11T03:30:00.558Z,15.57
2023-02-11T03:32:34.979Z,15.73
2023-02-11T03:35:12.754Z,15.50
2023-02-11T03:37:46.934Z,16.00
2023-02-11T03:40:20.051Z,15.07
2023-02-11T03:42:53.170Z,17.13
2023-02-11T03:45:23.917Z,14.97
2023-02-11T03:47:58.684Z,14.33
2023-02-11T03:50:31.384Z,14.00
2023-02-11T03:53:03.039Z,15.53
2023-02-11T03:55:36.446Z,16.03
2023-02-11T03:58:04.813Z,14.70
2023-02-11T04:00:36.782Z,14.17
2023-02-11T04:03:06.179Z,15.40
2023-02-11T04:05:38.881Z,15.30
2023-02-11T04:08:08.084Z,16.30
2023-02-11T04:10:37.439Z,15.87
2023-02-11T04:13:06.564Z,16.80
2023-02-11T04:15:36.285Z,15.90
2023-02-11T04:18:05.259Z,16.23
2023-02-11T04:20:37.726Z,16.10
2023-02-11T04:23:07.217Z,16.63
2023-02-11T04:25:36.419Z,14.37
2023-02-11T04:28:07.478Z,15.33
2023-02-11T04:30:37.697Z,14.00
2023-02-11T04:33:06.493Z,13.43
2023-02-11T04:35:38.779Z,12.70
2023-02-11T04:38:07.306Z,13.70
2023-02-11T04:40:35.742Z,11.97
2023-02-11T04:43:04.905Z,13.60
2023-02-11T04:45:33.269Z,13.80
2023-02-11T04:48:04.199Z,13.70
2023-02-11T04:50:32.543Z,12.97
2023-02-11T04:53:02.797Z,11.70
2023-02-11T04:55:35.331Z,12.70
2023-02-11T04:58:04.357Z,13.57
2023-02-11T05:00:32.932Z,14.50
2023-02-11T05:03:01.646Z,13.23
2023-02-11T05:05:30.134Z,13.27
2023-02-11T05:07:59.017Z,13.20
2023-02-11T05:10:28.997Z,13.20
2023-02-11T05:12:57.528Z,11.40
2023-02-11T05:15:29.572Z,12.97
2023-02-11T05:17:57.851Z,12.47
2023-02-11T05:20:26.657Z,11.90
2023-02-11T05:22:55.038Z,14.83
2023-02-11T05:25:25.489Z,13.33
2023-02-11T05:27:55.394Z,14.03
2023-02-11T05:30:24.049Z,12.43
2023-02-11T05:32:52.942Z,14.50
2023-02-11T05:35:21.451Z,13.83
2023-02-11T05:37:50.525Z,14.77
2023-02-11T05:40:23.016Z,14.60
2023-02-11T05:42:53.986Z,13.60
2023-02-11T05:45:24.280Z,14.90
2023-02-11T05:47:52.885Z,16.47
2023-02-11T05:50:21.314Z,15.93
2023-02-11T05:52:50.321Z,17.80
2023-02-11T05:55:20.706Z,16.13
2023-02-11T05:57:50.499Z,16.60
2023-02-11T06:00:23.576Z,15.30
2023-02-11T06:02:57.136Z,16.73
2023-02-11T06:05:26.584Z,17.40
2023-02-11T06:07:55.326Z,16.73
2023-02-11T06:10:23.865Z,18.03
2023-02-11T06:12:52.609Z,16.00
2023-02-11T06:15:21.489Z,16.77
2023-02-11T06:17:50.000Z,19.43
2023-02-11T06:20:20.410Z,18.57
2023-02-11T06:22:48.558Z,18.60
2023-02-11T06:25:17.779Z,19.30
2023-02-11T06:27:46.364Z,17.87
2023-02-11T06:30:16.656Z,17.53
2023-02-11T06:32:46.289Z,16.37
2023-02-11T06:35:16.724Z,16.60
2023-02-11T06:37:46.832Z,17.03
2023-02-11T06:40:15.214Z,16.67
2023-02-11T06:42:43.796Z,15.80
2023-02-11T06:45:13.608Z,16.90
2023-02-11T06:47:43.188Z,17.40
2023-02-11T06:50:14.913Z,15.43
2023-02-11T06:52:43.373Z,15.00
2023-02-11T06:55:13.614Z,15.67
2023-02-11T06:57:42.872Z,16.60
2023-02-11T07:00:13.796Z,16.40
2023-02-11T07:02:42.379Z,16.50
2023-02-11T07:05:11.387Z,16.03
2023-02-11T07:07:39.916Z,17.33
2023-02-11T07:10:08.577Z,17.70
2023-02-11T07:12:41.247Z,18.00
2023-02-11T07:15:10.103Z,19.30
2023-02-11T07:17:38.769Z,17.00
2023-02-11T07:20:09.367Z,17.80
2023-02-11T07:22:38.394Z,16.37
2023-02-11T07:25:07.516Z,17.40
2023-02-11T07:27:36.297Z,17.67
2023-02-11T07:30:08.651Z,18.90
2023-02-11T07:32:36.946Z,18.47
2023-02-11T07:35:06.330Z,26.00
2023-02-11T07:37:35.447Z,23.37
2023-02-11T07:40:04.486Z,23.73
2023-02-11T07:42:32.869Z,21.47
2023-02-11T07:45:01.311Z,21.40
2023-02-11T07:47:33.504Z,20.83
2023-02-11T07:50:02.113Z,19.40
2023-02-11T07:52:31.082Z,20.70
2023-02-11T07:55:04.881Z,19.70
2023-02-11T07:57:35.942Z,25.57
2023-02-11T08:00:05.945Z,21.97
2023-02-11T08:02:41.498Z,19.77
2023-02-11T08:05:10.356Z,19.27
2023-02-11T08:07:38.805Z,17.23
2023-02-11T08:10:08.585Z,17.37
2023-02-11T08:12:37.296Z,16.87
2023-02-11T08:15:06.529Z,17.07
2023-02-11T08:17:36.868Z,16.87
2023-02-11T08:20:08.222Z,16.90
2023-02-11T08:22:36.627Z,17.27
2023-02-11T08:25:05.154Z,17.47
2023-02-11T08:27:34.529Z,15.67
2023-02-11T08:30:02.845Z,16.60
2023-02-11T08:32:35.454Z,17.70
2023-02-11T08:35:08.065Z,16.70
2023-02-11T08:37:37.856Z,17.67
2023-02-11T08:40:07.326Z,16.90
2023-02-11T08:42:35.976Z,16.97
2023-02-11T08:45:05.518Z,17.07
2023-02-11T08:47:35.898Z,17.73
2023-02-11T08:50:05.437Z,15.93
2023-02-11T08:52:34.346Z,15.90
2023-02-11T08:55:05.114Z,15.80
2023-02-11T08:57:33.751Z,15.60
2023-02-11T09:00:02.136Z,12.07
2023-02-11T09:02:31.143Z,16.40
2023-02-11T09:04:59.574Z,15.23
2023-02-11T09:07:29.599Z,15.33
2023-02-11T09:09:57.885Z,14.23
2023-02-11T09:12:29.495Z,14.30
2023-02-11T09:14:57.960Z,13.90
2023-02-11T09:17:26.717Z,14.47
2023-02-11T09:19:55.059Z,14.20
2023-02-11T09:22:23.403Z,13.20
2023-02-11T09:24:52.172Z,13.13
2023-02-11T09:27:21.181Z,12.33
2023-02-11T09:29:53.351Z,14.73
2023-02-11T09:32:23.174Z,12.63
2023-02-11T09:34:51.588Z,15.90
2023-02-11T09:37:20.082Z,13.53
2023-02-11T09:39:48.476Z,12.97
2023-02-11T09:42:40.352Z,13.43
2023-02-11T09:45:18.214Z,16.03
2023-02-11T09:47:51.080Z,14.93
2023-02-11T09:50:23.964Z,14.23
2023-02-11T09:52:57.422Z,14.33
2023-02-11T09:55:29.323Z,14.30
2023-02-11T09:57:58.155Z,11.90
2023-02-11T10:00:33.688Z,12.40
2023-02-11T10:03:26.857Z,14.13
2023-02-11T10:06:22.319Z,12.83
2023-02-11T10:09:01.997Z,12.00
2023-02-11T10:11:38.077Z,11.50
2023-02-11T10:14:22.709Z,13.87
2023-02-11T10:17:06.411Z,13.93
2023-02-11T10:19:48.233Z,14.80
2023-02-11T10:22:21.466Z,13.00
2023-02-11T10:24:54.921Z,14.90
2023-02-11T10:27:29.909Z,13.90
2023-02-11T10:30:03.667Z,14.63
2023-02-11T10:32:43.121Z,14.20
2023-02-11T10:35:18.676Z,14.87
2023-02-11T10:37:47.579Z,14.00
2023-02-11T10:40:19.705Z,14.87
2023-02-11T10:42:51.985Z,14.33
2023-02-11T10:45:31.418Z,15.90
2023-02-11T10:48:01.663Z,14.73
2023-02-11T10:50:35.376Z,14.73
2023-02-11T10:53:20.004Z,16.07
2023-02-11T10:55:55.460Z,16.00
2023-02-11T10:58:27.581Z,14.87
2023-02-11T11:00:57.728Z,13.53
2023-02-11T11:03:31.659Z,16.17
2023-02-11T11:06:02.744Z,15.60
2023-02-11T11:08:41.136Z,14.47
2023-02-11T11:11:11.873Z,13.83
2023-02-11T11:13:43.578Z,15.97
2023-02-11T11:16:21.634Z,15.30
2023-02-11T11:18:54.098Z,14.30
2023-02-11T11:21:26.893Z,13.10
2023-02-11T11:23:58.450Z,14.20
2023-02-11T11:26:29.154Z,14.47
2023-02-11T11:29:04.080Z,14.40
2023-02-11T11:31:36.978Z,14.23
2023-02-11T11:34:22.260Z,14.43
2023-02-11T11:36:53.531Z,13.20
2023-02-11T11:39:25.948Z,13.97
2023-02-11T11:41:56.711Z,14.97
2023-02-11T11:44:31.558Z,15.70
2023-02-11T11:47:21.849Z,15.03
2023-02-11T11:50:06.769Z,14.90
2023-02-11T11:52:40.943Z,13.53
2023-02-11T11:55:16.908Z,13.93
2023-02-11T11:57:46.162Z,14.23
2023-02-11T12:00:39.194Z,15.13
2023-02-11T12:03:46.378Z,14.57
2023-02-11T12:12:59.944Z,10.87
2023-02-11T12:15:35.946Z,14.00
2023-02-11T12:18:26.236Z,12.77
2023-02-11T12:21:18.562Z,13.37
2023-02-11T12:24:01.465Z,14.17
2023-02-11T12:26:37.565Z,11.50
2023-02-11T12:29:21.772Z,12.83
2023-02-11T12:32:05.414Z,13.97
2023-02-11T12:34:54.578Z,13.47
2023-02-11T12:37:38.715Z,13.40
2023-02-11T12:40:19.930Z,13.23
2023-02-11T12:43:15.208Z,13.87
2023-02-11T12:46:02.008Z,12.90
2023-02-11T12:48:48.968Z,13.33
2023-02-11T12:51:31.978Z,10.50
2023-02-11T12:54:18.933Z,10.63
2023-02-11T12:56:53.941Z,12.60
2023-02-11T12:59:38.929Z,13.30
2023-02-11T13:02:21.037Z,11.47
2023-02-11T13:04:57.620Z,14.57
2023-02-11T13:07:35.559Z,15.03
2023-02-11T13:10:10.590Z,15.07
2023-02-11T13:12:58.578Z,11.87
2023-02-11T13:15:30.472Z,13.60
2023-02-11T13:18:07.752Z,14.30
2023-02-11T13:20:47.383Z,13.50
2023-02-11T13:23:26.700Z,11.17
2023-02-11T13:26:05.494Z,14.87
2023-02-11T13:28:43.325Z,13.80
2023-02-11T13:31:16.284Z,15.60
2023-02-11T13:33:49.527Z,15.73
2023-02-11T13:36:33.007Z,14.60
2023-02-11T13:39:07.339Z,13.27
2023-02-11T13:41:40.505Z,14.90
2023-02-11T13:44:31.928Z,15.63
2023-02-11T13:47:04.905Z,14.83
2023-02-11T14:03:51.168Z,14.53
2023-02-11T14:06:43.594Z,15.00
2023-02-11T14:09:40.740Z,15.50
2023-02-11T14:12:26.479Z,14.87
2023-02-11T14:15:24.495Z,14.40
2023-02-11T14:17:53.502Z,15.00
2023-02-11T14:20:38.891Z,13.17
2023-02-11T14:23:08.796Z,13.27
2023-02-11T14:25:40.355Z,13.70
2023-02-11T14:28:19.228Z,13.53
2023-02-11T14:30:58.178Z,13.43
2023-02-11T14:33:59.215Z,14.50
2023-02-11T14:36:52.066Z,13.70
2023-02-11T14:39:38.586Z,13.30
2023-02-11T14:42:13.086Z,13.47
2023-02-11T14:44:43.334Z,12.30
2023-02-11T14:47:19.993Z,12.70
2023-02-11T14:49:50.106Z,13.57
2023-02-11T14:52:28.931Z,12.57
2023-02-11T14:55:10.893Z,12.93
2023-02-11T14:57:39.681Z,13.50
2023-02-11T15:00:22.522Z,13.43
2023-02-11T15:02:51.661Z,14.47
2023-02-11T15:05:26.161Z,13.33
2023-02-11T15:07:58.462Z,13.50
2023-02-11T15:10:36.632Z,12.07
2023-02-11T15:13:06.609Z,12.43
2023-02-11T15:15:37.768Z,13.70
2023-02-11T15:18:09.586Z,13.23
2023-02-11T15:20:40.522Z,13.30
2023-02-11T15:23:19.980Z,13.60
2023-02-11T15:25:53.046Z,12.47
2023-02-11T15:28:25.547Z,16.80
2023-02-11T15:31:02.792Z,16.90
2023-02-11T15:33:32.681Z,13.43
2023-02-11T15:36:01.870Z,13.33
2023-02-11T15:38:31.059Z,13.07
2023-02-11T15:41:02.723Z,12.20
2023-02-11T15:43:45.590Z,12.10
2023-02-11T15:46:20.780Z,13.13
2023-02-11T15:48:51.726Z,14.07
2023-02-11T15:51:23.081Z,12.83
2023-02-11T15:53:59.205Z,12.57
2023-02-11T15:56:37.620Z,12.70
2023-02-11T15:59:14.343Z,11.73
2023-02-11T16:01:45.220Z,12.23
2023-02-11T16:04:19.230Z,10.80
2023-02-11T16:06:49.185Z,12.20
2023-02-11T16:09:32.300Z,12.53
2023-02-11T16:12:04.806Z,12.57
2023-02-11T16:14:37.057Z,12.23
2023-02-11T16:17:14.233Z,12.10
2023-02-11T16:19:47.040Z,11.50
2023-02-11T16:22:20.931Z,11.20
2023-02-11T16:24:53.000Z,12.13
2023-02-11T16:27:25.493Z,11.47
2023-02-11T16:29:54.439Z,12.23
2023-02-11T16:32:26.707Z,11.23
2023-02-11T16:34:57.916Z,12.00
2023-02-11T16:37:27.860Z,12.33
2023-02-11T16:39:59.495Z,11.60
2023-02-11T16:42:31.311Z,14.10
2023-02-11T16:45:00.374Z,13.30
2023-02-11T16:47:32.236Z,11.60
2023-02-11T16:50:02.248Z,10.60
2023-02-11T16:52:31.816Z,12.60
2023-02-11T16:55:00.661Z,12.10
2023-02-11T16:57:31.389Z,12.73
2023-02-11T17:00:02.162Z,11.03
2023-02-11T17:02:32.884Z,11.80
2023-02-11T17:05:04.999Z,11.60
2023-02-11T17:07:33.574Z,12.60
2023-02-11T17:10:02.114Z,11.93
2023-02-11T17:12:32.111Z,11.80
2023-02-11T17:15:02.824Z,12.07
2023-02-11T17:17:34.311Z,12.50
2023-02-11T17:20:02.675Z,11.33
2023-02-11T17:22:31.572Z,11.37
2023-02-11T17:25:00.261Z,11.50
2023-02-11T17:27:28.874Z,11.60
2023-02-11T17:30:02.829Z,10.87
2023-02-11T17:32:32.071Z,11.10
2023-02-11T17:35:00.814Z,11.23
2023-02-11T17:37:32.050Z,10.53
2023-02-11T17:40:00.782Z,10.20
2023-02-11T17:42:29.863Z,10.37
2023-02-11T17:44:59.979Z,9.33
2023-02-11T17:47:29.295Z,9.20
2023-02-11T17:49:57.451Z,16.70
2023-02-11T17:52:28.135Z,11.97
2023-02-11T17:54:57.964Z,10.13
2023-02-11T17:57:26.426Z,9.97
2023-02-11T17:59:55.209Z,9.37
2023-02-11T18:02:25.230Z,36.47
2023-02-11T18:04:57.729Z,11.07
2023-02-11T18:07:26.771Z,12.43
2023-02-11T18:09:58.490Z,12.00
2023-02-11T18:12:28.442Z,13.40
2023-02-11T18:14:58.164Z,10.97
2023-02-11T18:17:28.156Z,10.80
2023-02-11T18:19:59.296Z,10.87
2023-02-11T18:22:30.190Z,12.37
2023-02-11T18:24:58.706Z,10.83
2023-02-11T18:27:28.272Z,10.40
2023-02-11T18:29:57.013Z,12.30
2023-02-11T18:32:29.196Z,12.03
2023-02-11T18:35:00.146Z,12.20
2023-02-11T18:37:30.589Z,11.90
2023-02-11T18:40:01.111Z,12.47
2023-02-11T18:42:30.174Z,11.07
2023-02-11T18:44:59.083Z,12.00
2023-02-11T18:47:29.190Z,10.87
2023-02-11T18:49:57.720Z,10.43
2023-02-11T18:52:26.140Z,11.03
2023-02-11T18:54:55.551Z,10.70
2023-02-11T18:57:27.503Z,12.77
2023-02-11T18:59:56.285Z,13.83
2023-02-11T19:02:25.609Z,11.17
2023-02-11T19:04:56.007Z,10.80
2023-02-11T19:07:27.348Z,11.57
2023-02-11T19:09:56.116Z,10.90
2023-02-11T19:12:24.681Z,11.60
2023-02-11T19:14:53.380Z,12.00
2023-02-11T19:17:23.358Z,11.60
2023-02-11T19:19:54.778Z,11.60
2023-02-11T19:22:23.676Z,12.87
2023-02-11T19:24:52.724Z,13.03
2023-02-11T19:27:21.283Z,12.93
2023-02-11T19:29:49.964Z,16.20
2023-02-11T19:32:18.332Z,16.53
2023-02-11T19:34:48.119Z,15.67
2023-02-11T19:37:18.127Z,15.70
2023-02-11T19:39:47.990Z,17.97
2023-02-11T19:42:16.318Z,33.90
2023-02-11T19:44:45.840Z,23.03
2023-02-11T19:47:14.289Z,33.20
2023-02-11T19:49:42.810Z,16.67
2023-02-11T19:52:12.018Z,16.77
2023-02-11T19:54:43.365Z,16.77
2023-02-11T19:57:12.722Z,18.07
2023-02-11T19:59:43.407Z,18.50
2023-02-11T20:02:12.823Z,22.63
2023-02-11T20:04:45.148Z,21.10
2023-02-11T20:07:14.681Z,20.00
2023-02-11T20:09:44.992Z,47.73
2023-02-11T20:12:13.745Z,33.07
2023-02-11T20:14:43.779Z,19.90
2023-02-11T20:17:13.329Z,23.80
2023-02-11T20:19:41.693Z,15.10
2023-02-11T20:22:10.670Z,13.03
2023-02-11T20:24:39.139Z,12.50
2023-02-11T20:27:11.578Z,11.13
2023-02-11T20:29:39.985Z,12.20
2023-02-11T20:32:14.268Z,12.30
2023-02-11T20:34:42.609Z,13.10
2023-02-11T20:37:11.074Z,14.07
2023-02-11T20:39:42.263Z,14.83
2023-02-11T20:42:13.068Z,13.80
2023-02-11T20:44:42.084Z,13.67
2023-02-11T20:47:11.026Z,16.70
2023-02-11T20:49:40.686Z,14.40
2023-02-11T20:52:10.552Z,15.67
2023-02-11T20:54:38.966Z,16.20
2023-02-11T20:57:07.642Z,14.93
2023-02-11T20:59:37.909Z,13.80
2023-02-11T21:02:08.221Z,12.80
2023-02-11T21:04:39.052Z,15.20
2023-02-11T21:07:07.562Z,13.10
2023-02-11T21:09:36.815Z,14.70
2023-02-11T21:12:07.423Z,14.07
2023-02-11T21:14:37.932Z,13.20
2023-02-11T21:17:06.638Z,13.40
2023-02-11T21:19:35.342Z,12.87
2023-02-11T21:22:04.241Z,12.63
2023-02-11T21:24:32.859Z,14.00
2023-02-11T21:27:01.205Z,12.93
2023-02-11T21:29:29.918Z,12.97
2023-02-11T21:32:00.490Z,12.03
2023-02-11T21:34:29.412Z,12.50
2023-02-11T21:37:00.367Z,11.90
2023-02-11T21:39:29.280Z,9.90
2023-02-11T21:41:57.479Z,12.00
2023-02-11T21:44:27.284Z,11.97
2023-02-11T21:46:55.858Z,10.20
2023-02-11T21:49:25.897Z,13.00
2023-02-11T21:51:54.434Z,10.90
2023-02-11T21:54:29.202Z,11.57
2023-02-11T21:56:58.201Z,12.50
2023-02-11T21:59:26.799Z,11.60
2023-02-11T22:01:56.352Z,9.53
2023-02-11T22:04:26.203Z,10.53
2023-02-11T22:06:56.836Z,10.07
2023-02-11T22:09:25.359Z,10.10
2023-02-11T22:11:53.996Z,11.13
2023-02-11T22:14:22.915Z,10.20
2023-02-11T22:16:53.611Z,10.13
2023-02-11T22:19:23.852Z,8.33
2023-02-11T22:21:54.058Z,9.37
2023-02-11T22:24:22.656Z,9.00
2023-02-11T22:26:50.994Z,9.50
2023-02-11T22:29:20.730Z,9.30
2023-02-11T22:31:49.097Z,9.57
2023-02-11T22:34:17.943Z,8.93
2023-02-11T22:36:48.793Z,9.00
2023-02-11T22:39:18.739Z,10.30
2023-02-11T22:41:51.604Z,8.53
2023-02-11T22:44:21.833Z,9.63
2023-02-11T22:46:54.064Z,8.63
2023-02-11T22:49:25.809Z,10.00
2023-02-11T22:51:54.145Z,9.27
2023-02-11T22:54:23.988Z,10.50
2023-02-11T22:56:53.746Z,8.83
2023-02-11T22:59:22.910Z,11.00
2023-02-11T23:01:52.803Z,10.30
2023-02-11T23:04:21.142Z,10.20
2023-02-11T23:06:50.538Z,10.47
2023-02-11T23:09:18.922Z,10.93
2023-02-11T23:11:50.041Z,9.67
2023-02-11T23:14:18.606Z,11.90
2023-02-11T23:16:47.173Z,10.47
2023-02-11T23:19:17.173Z,10.20
2023-02-11T23:21:48.270Z,10.60
2023-02-11T23:24:16.930Z,10.87
2023-02-11T23:26:46.188Z,10.87
2023-02-11T23:29:18.072Z,10.23
2023-02-11T23:31:47.492Z,10.33
2023-02-11T23:34:20.539Z,11.33
2023-02-11T23:36:51.193Z,10.83
2023-02-11T23:39:19.894Z,10.60
2023-02-11T23:41:48.263Z,10.73
2023-02-11T23:44:20.001Z,11.27
2023-02-11T23:46:48.723Z,11.57
2023-02-11T23:49:17.266Z,11.80
2023-02-11T23:51:46.805Z,11.13
2023-02-11T23:54:16.413Z,11.17
2023-02-11T23:56:48.243Z,14.43
2023-02-11T23:59:18.454Z,13.20
